createdAt,value
2022-09-15T00:03:21.781Z,98882.64
2022-09-15T00:08:25.736Z,98881.94
2022-09-15T00:13:29.146Z,98879.58
2022-09-15T00:18:34.110Z,98870.31
2022-09-15T00:23:38.414Z,98861.39
2022-09-15T00:28:42.918Z,98853.41
2022-09-15T00:33:48.743Z,98839.73
2022-09-15T00:38:54.984Z,98838.27
2022-09-15T00:44:00.846Z,98830.41
2022-09-15T00:49:18.117Z,98830.60
2022-09-15T00:54:32.230Z,98841.10
2022-09-15T00:59:38.114Z,98847.87
2022-09-15T01:04:41.739Z,98849.33
2022-09-15T01:10:15.208Z,98843.73
2022-09-15T01:15:18.731Z,98844.10
2022-09-15T01:20:45.036Z,98847.23
2022-09-15T01:25:57.328Z,98846.47
2022-09-15T01:31:13.122Z,98846.73
2022-09-15T01:36:25.403Z,98835.92
2022-09-15T01:41:55.983Z,98836.05
2022-09-15T01:47:03.271Z,98838.84
2022-09-15T01:52:08.381Z,98845.09
2022-09-15T01:57:12.567Z,98848.79
2022-09-15T02:02:29.826Z,98849.40
2022-09-15T02:08:15.870Z,98843.70
2022-09-15T02:13:54.351Z,98846.38
2022-09-15T02:19:20.530Z,98851.28
2022-09-15T02:24:30.870Z,98860.14
2022-09-15T02:29:37.402Z,98860.29
2022-09-15T02:34:47.182Z,98864.80
2022-09-15T02:39:55.098Z,98867.60
2022-09-15T02:45:00.321Z,98867.91
2022-09-15T02:50:04.524Z,98871.50
2022-09-15T02:55:08.198Z,98862.58
2022-09-15T03:00:16.747Z,98870.05
2022-09-15T03:05:22.668Z,98872.29
2022-09-15T03:10:26.551Z,98871.28
2022-09-15T03:15:29.692Z,98868.35
2022-09-15T03:20:33.509Z,98874.31
2022-09-15T03:25:36.955Z,98880.50
2022-09-15T03:30:40.828Z,98896.94
2022-09-15T03:35:48.096Z,98897.77
2022-09-15T03:41:10.856Z,98911.94
2022-09-15T03:46:22.737Z,98925.77
2022-09-15T03:51:29.210Z,98918.44
2022-09-15T03:56:33.180Z,98945.75
2022-09-15T04:01:36.360Z,98968.11
2022-09-15T04:06:39.683Z,98968.80
2022-09-15T04:11:53.857Z,98952.44
2022-09-15T04:16:58.105Z,98944.73
2022-09-15T04:22:01.304Z,98956.98
2022-09-15T04:27:04.720Z,98965.55
2022-09-15T04:32:08.708Z,98972.65
2022-09-15T04:37:12.538Z,98963.80
2022-09-15T04:42:15.786Z,98973.36
2022-09-15T04:47:19.735Z,98976.64
2022-09-15T04:52:22.903Z,98975.95
2022-09-15T04:57:26.164Z,98981.97
2022-09-15T05:02:29.532Z,98990.70
2022-09-15T05:07:32.866Z,98999.33
2022-09-15T05:12:36.042Z,99006.12
2022-09-15T05:17:39.537Z,98994.70
2022-09-15T05:22:42.976Z,98991.39
2022-09-15T05:27:46.142Z,98996.05
2022-09-15T05:32:49.343Z,99000.55
2022-09-15T05:37:54.765Z,99004.36
2022-09-15T05:42:59.556Z,99014.23
2022-09-15T05:48:04.389Z,99018.23
2022-09-15T05:53:08.885Z,99020.12
2022-09-15T05:58:12.538Z,99026.08
2022-09-15T06:03:17.188Z,99025.40
2022-09-15T06:08:21.047Z,99027.27
2022-09-15T06:13:24.426Z,99022.58
2022-09-15T06:18:27.802Z,99022.30
2022-09-15T06:23:31.109Z,99021.91
2022-09-15T06:28:34.304Z,99016.80
2022-09-15T06:33:37.574Z,99030.14
2022-09-15T06:38:41.971Z,99031.77
2022-09-15T06:43:45.981Z,99032.30
2022-09-15T06:48:49.479Z,99030.68
2022-09-15T06:53:54.007Z,99027.92
2022-09-15T06:58:57.213Z,99037.74
2022-09-15T07:04:10.527Z,99042.05
2022-09-15T07:09:13.964Z,99046.23
2022-09-15T07:14:17.589Z,99044.13
2022-09-15T07:19:21.427Z,99055.98
2022-09-15T07:24:24.814Z,99064.19
2022-09-15T07:29:27.963Z,99076.38
2022-09-15T07:34:31.288Z,99079.83
2022-09-15T07:39:34.450Z,99079.48
2022-09-15T07:44:37.702Z,99089.90
2022-09-15T07:49:41.230Z,99099.87
2022-09-15T07:54:46.274Z,99109.94
2022-09-15T07:59:49.525Z,99120.66
2022-09-15T08:04:53.397Z,99124.79
2022-09-15T08:09:56.585Z,99131.13
2022-09-15T08:14:59.758Z,99141.92
2022-09-15T08:20:04.009Z,99138.98
2022-09-15T08:25:07.403Z,99145.52
2022-09-15T08:30:11.548Z,99146.69
2022-09-15T08:35:17.003Z,99135.89
2022-09-15T08:40:24.705Z,99128.11
2022-09-15T08:45:32.819Z,99136.25
2022-09-15T08:50:39.916Z,99128.02
2022-09-15T08:55:53.596Z,99122.61
2022-09-15T09:01:36.795Z,99109.20
2022-09-15T09:06:43.338Z,99109.71
2022-09-15T09:12:01.945Z,99097.41
2022-09-15T09:17:08.257Z,99095.30
2022-09-15T09:22:15.820Z,99102.11
2022-09-15T09:27:25.618Z,99099.13
2022-09-15T09:32:51.668Z,99092.61
2022-09-15T09:38:01.339Z,99094.76
2022-09-15T09:43:06.189Z,99096.41
2022-09-15T09:48:20.608Z,99100.10
2022-09-15T09:53:32.351Z,99107.95
2022-09-15T09:58:37.583Z,99105.94
2022-09-15T10:03:42.126Z,99102.02
2022-09-15T10:08:58.721Z,99097.35
2022-09-15T10:14:02.280Z,99101.49
2022-09-15T10:19:12.733Z,99093.35
2022-09-15T10:24:34.925Z,99092.66
2022-09-15T10:29:40.466Z,99086.67
2022-09-15T10:34:49.125Z,99084.02
2022-09-15T10:39:54.812Z,99093.52
2022-09-15T10:45:11.323Z,99097.05
2022-09-15T10:50:21.585Z,99096.48
2022-09-15T10:55:54.859Z,99099.39
2022-09-15T11:01:16.885Z,99098.02
2022-09-15T11:06:33.264Z,99093.40
2022-09-15T11:11:48.423Z,99094.27
2022-09-15T11:17:28.402Z,99085.45
2022-09-15T11:22:37.681Z,99079.11
2022-09-15T11:27:45.357Z,99071.28
2022-09-15T11:32:58.949Z,99068.27
2022-09-15T11:38:36.296Z,99071.83
2022-09-15T11:44:02.300Z,99071.42
2022-09-15T11:49:16.295Z,99061.91
2022-09-15T11:54:34.429Z,99061.42
2022-09-15T11:59:58.803Z,99056.14
2022-09-15T12:05:16.239Z,99052.31
2022-09-15T12:10:24.887Z,99051.10
2022-09-15T12:15:28.387Z,99054.52
2022-09-15T12:20:37.894Z,99050.95
2022-09-15T12:26:19.407Z,99043.65
2022-09-15T12:31:37.597Z,99039.36
2022-09-15T12:37:09.088Z,99037.79
2022-09-15T12:42:25.519Z,99027.28
2022-09-15T12:47:35.545Z,99026.77
2022-09-15T12:52:51.814Z,99029.70
2022-09-15T12:58:02.911Z,99027.79
2022-09-15T13:03:28.666Z,99027.63
2022-09-15T13:08:31.924Z,99020.13
2022-09-15T13:13:56.262Z,99018.20
2022-09-15T13:19:30.054Z,99016.11
2022-09-15T13:25:01.389Z,99018.35
2022-09-15T13:30:43.453Z,99010.83
2022-09-15T13:35:52.819Z,99007.00
2022-09-15T13:41:24.020Z,99004.36
2022-09-15T13:46:49.367Z,99007.74
2022-09-15T13:52:22.711Z,99002.02
2022-09-15T14:02:52.914Z,99002.08
2022-09-15T14:08:04.441Z,98997.88
2022-09-15T14:13:07.816Z,98998.66
2022-09-15T14:18:20.296Z,99007.98
2022-09-15T14:23:26.677Z,99005.88
2022-09-15T14:28:32.818Z,99007.99
2022-09-15T14:33:42.522Z,99014.11
2022-09-15T14:39:17.192Z,99009.69
2022-09-15T14:50:20.498Z,99000.84
2022-09-15T14:55:35.709Z,99003.86
2022-09-15T15:00:53.985Z,99007.66
2022-09-15T15:06:29.563Z,99002.45
2022-09-15T15:11:42.315Z,98994.20
2022-09-15T15:17:27.760Z,98991.85
2022-09-15T15:22:38.797Z,98999.10
2022-09-15T15:27:57.354Z,98993.45
2022-09-15T15:33:15.110Z,98988.94
2022-09-15T15:38:28.027Z,98987.13
2022-09-15T15:43:39.036Z,98994.39
2022-09-15T15:48:42.506Z,98999.85
2022-09-15T15:53:46.021Z,99002.26
2022-09-15T15:58:49.143Z,99006.77
2022-09-15T16:04:03.365Z,99001.46
2022-09-15T16:09:07.253Z,98998.83
2022-09-15T16:14:14.889Z,99009.50
2022-09-15T16:19:25.035Z,99007.70
2022-09-15T16:24:29.430Z,99011.64
2022-09-15T16:29:36.447Z,99021.67
2022-09-15T16:34:40.114Z,99019.39
2022-09-15T16:39:48.820Z,99023.34
2022-09-15T16:45:02.879Z,99040.39
2022-09-15T16:50:07.582Z,99036.31
2022-09-15T16:55:19.404Z,99035.02
2022-09-15T17:00:25.440Z,99033.46
2022-09-15T17:05:39.959Z,99033.94
2022-09-15T17:10:55.359Z,99033.33
2022-09-15T17:16:03.046Z,99035.94
2022-09-15T17:21:13.593Z,99033.73
2022-09-15T17:26:27.628Z,99035.40
2022-09-15T17:31:39.174Z,99045.69
2022-09-15T17:36:42.680Z,99049.91
2022-09-15T17:41:49.683Z,99053.25
2022-09-15T17:46:53.627Z,99055.22
2022-09-15T17:51:57.025Z,99063.29
2022-09-15T17:57:00.460Z,99068.21
2022-09-15T18:02:04.486Z,99075.27
2022-09-15T18:07:20.660Z,99076.91
2022-09-15T18:12:28.865Z,99080.45
2022-09-15T18:17:32.789Z,99081.80
2022-09-15T18:22:45.818Z,99085.31
2022-09-15T18:28:02.264Z,99090.29
2022-09-15T18:33:06.019Z,99095.50
2022-09-15T18:38:15.519Z,99096.77
2022-09-15T18:43:28.916Z,99100.65
2022-09-15T18:48:38.146Z,99099.69
2022-09-15T18:53:54.242Z,99104.00
2022-09-15T18:59:09.922Z,99108.17
2022-09-15T19:04:19.995Z,99110.08
2022-09-15T19:09:30.572Z,99110.41
2022-09-15T19:14:49.631Z,99123.17
2022-09-15T19:20:35.935Z,99124.14
2022-09-15T19:25:50.882Z,99127.10
2022-09-15T19:31:00.039Z,99138.42
2022-09-15T19:36:27.550Z,99142.42
2022-09-15T19:41:39.089Z,99142.50
2022-09-15T19:46:46.346Z,99140.27
2022-09-15T19:51:55.618Z,99141.81
2022-09-15T19:57:13.860Z,99138.77
2022-09-15T20:02:23.583Z,99133.79
2022-09-15T20:07:28.130Z,99142.02
2022-09-15T20:12:35.326Z,99147.26
2022-09-15T20:17:49.274Z,99147.15
2022-09-15T20:22:54.583Z,99153.41
2022-09-15T20:28:09.147Z,99152.37
2022-09-15T20:33:28.528Z,99147.55
2022-09-15T20:38:40.998Z,99145.02
2022-09-15T20:43:55.319Z,99148.23
2022-09-15T20:49:21.959Z,99149.41
2022-09-15T20:54:26.086Z,99148.08
2022-09-15T20:59:36.309Z,99145.63
2022-09-15T21:04:58.719Z,99143.42
2022-09-15T21:10:05.808Z,99144.23
2022-09-15T21:15:09.720Z,99145.09
2022-09-15T21:20:13.956Z,99155.10
2022-09-15T21:25:20.366Z,99157.69
2022-09-15T21:30:24.040Z,99169.11
2022-09-15T21:35:27.447Z,99171.15
2022-09-15T21:40:33.141Z,99168.06
2022-09-15T21:45:42.679Z,99166.56
2022-09-15T21:50:51.160Z,99169.36
2022-09-15T21:55:55.127Z,99172.83
2022-09-15T22:00:58.478Z,99176.33
2022-09-15T22:06:02.157Z,99183.62
2022-09-15T22:11:07.477Z,99186.93
2022-09-15T22:16:19.217Z,99190.05
2022-09-15T22:21:26.814Z,99194.75
2022-09-15T22:26:32.515Z,99200.06
2022-09-15T22:31:37.614Z,99206.63
2022-09-15T22:36:42.053Z,99216.02
2022-09-15T22:41:45.807Z,99221.69
2022-09-15T22:46:58.204Z,99224.31
2022-09-15T22:52:03.284Z,99220.80
2022-09-15T22:57:07.480Z,99219.64
2022-09-15T23:02:11.237Z,99222.38
2022-09-15T23:07:15.121Z,99225.72
2022-09-15T23:12:25.195Z,99225.73
2022-09-15T23:17:29.895Z,99216.42
2022-09-15T23:22:33.146Z,99215.52
2022-09-15T23:27:37.246Z,99215.10
2022-09-15T23:32:43.066Z,99212.68
2022-09-15T23:37:48.083Z,99219.60
2022-09-15T23:42:53.440Z,99214.51
2022-09-15T23:47:56.743Z,99216.91
2022-09-15T23:53:00.172Z,99218.15
2022-09-15T23:58:05.142Z,99223.64
